sensor_id;sensor_type;location;lat;lon;timestamp;P1;durP1;ratioP1;P2;durP2;ratioP2
1404;SDS011;697;51.114;6.542;2022-08-01T00:02:01;3.73;;;2.50;;
1404;SDS011;697;51.114;6.542;2022-08-01T00:04:28;2.80;;;2.50;;
1404;SDS011;697;51.114;6.542;2022-08-01T00:06:56;3.83;;;3.20;;
1404;SDS011;697;51.114;6.542;2022-08-01T00:09:23;2.70;;;2.50;;
1404;SDS011;697;51.114;6.542;2022-08-01T00:11:50;2.80;;;2.50;;
1404;SDS011;697;51.114;6.542;2022-08-01T00:14:16;3.53;;;2.57;;
1404;SDS011;697;51.114;6.542;2022-08-01T00:16:43;3.17;;;2.57;;
1404;SDS011;697;51.114;6.542;2022-08-01T00:19:10;2.50;;;2.30;;
1404;SDS011;697;51.114;6.542;2022-08-01T00:21:37;4.60;;;2.73;;
1404;SDS011;697;51.114;6.542;2022-08-01T00:24:05;3.33;;;3.13;;
1404;SDS011;697;51.114;6.542;2022-08-01T00:26:32;2.50;;;2.30;;
1404;SDS011;697;51.114;6.542;2022-08-01T00:28:59;3.13;;;2.50;;
1404;SDS011;697;51.114;6.542;2022-08-01T00:31:26;5.30;;;3.10;;
1404;SDS011;697;51.114;6.542;2022-08-01T00:33:53;3.10;;;2.80;;
1404;SDS011;697;51.114;6.542;2022-08-01T00:36:19;3.50;;;2.67;;
1404;SDS011;697;51.114;6.542;2022-08-01T00:38:46;3.37;;;2.60;;
1404;SDS011;697;51.114;6.542;2022-08-01T00:41:14;3.42;;;2.80;;
1404;SDS011;697;51.114;6.542;2022-08-01T00:43:41;4.43;;;2.70;;
1404;SDS011;697;51.114;6.542;2022-08-01T00:46:08;4.47;;;3.33;;
1404;SDS011;697;51.114;6.542;2022-08-01T00:48:35;5.10;;;3.20;;
1404;SDS011;697;51.114;6.542;2022-08-01T00:51:02;4.60;;;2.73;;
1404;SDS011;697;51.114;6.542;2022-08-01T00:53:30;3.00;;;2.70;;
1404;SDS011;697;51.114;6.542;2022-08-01T00:55:57;3.40;;;2.97;;
1404;SDS011;697;51.114;6.542;2022-08-01T00:58:25;3.43;;;3.03;;
1404;SDS011;697;51.114;6.542;2022-08-01T01:00:54;3.10;;;2.43;;
1404;SDS011;697;51.114;6.542;2022-08-01T01:03:21;4.20;;;3.30;;
1404;SDS011;697;51.114;6.542;2022-08-01T01:05:51;3.40;;;3.10;;
1404;SDS011;697;51.114;6.542;2022-08-01T01:08:27;4.17;;;3.40;;
1404;SDS011;697;51.114;6.542;2022-08-01T01:11:01;4.80;;;2.57;;
1404;SDS011;697;51.114;6.542;2022-08-01T01:13:35;4.87;;;3.07;;
1404;SDS011;697;51.114;6.542;2022-08-01T01:16:05;2.60;;;2.40;;
1404;SDS011;697;51.114;6.542;2022-08-01T01:18:37;2.87;;;2.60;;
1404;SDS011;697;51.114;6.542;2022-08-01T01:21:11;5.43;;;3.37;;
1404;SDS011;697;51.114;6.542;2022-08-01T01:23:50;4.70;;;2.90;;
1404;SDS011;697;51.114;6.542;2022-08-01T01:26:31;3.23;;;2.93;;
1404;SDS011;697;51.114;6.542;2022-08-01T01:29:08;3.90;;;2.73;;
1404;SDS011;697;51.114;6.542;2022-08-01T01:31:42;3.93;;;3.00;;
1404;SDS011;697;51.114;6.542;2022-08-01T01:34:15;4.85;;;3.17;;
1404;SDS011;697;51.114;6.542;2022-08-01T01:36:44;4.93;;;3.90;;
1404;SDS011;697;51.114;6.542;2022-08-01T01:39:13;2.83;;;2.63;;
1404;SDS011;697;51.114;6.542;2022-08-01T01:41:41;6.73;;;3.10;;
1404;SDS011;697;51.114;6.542;2022-08-01T01:44:11;3.23;;;2.90;;
1404;SDS011;697;51.114;6.542;2022-08-01T01:46:39;4.30;;;3.17;;
1404;SDS011;697;51.114;6.542;2022-08-01T01:49:07;3.50;;;3.20;;
1404;SDS011;697;51.114;6.542;2022-08-01T01:51:36;5.00;;;3.17;;
1404;SDS011;697;51.114;6.542;2022-08-01T01:54:06;5.90;;;3.37;;
1404;SDS011;697;51.114;6.542;2022-08-01T01:56:34;3.13;;;2.90;;
1404;SDS011;697;51.114;6.542;2022-08-01T01:59:15;3.20;;;2.90;;
1404;SDS011;697;51.114;6.542;2022-08-01T02:01:44;3.37;;;2.63;;
1404;SDS011;697;51.114;6.542;2022-08-01T02:04:13;3.30;;;2.90;;
1404;SDS011;697;51.114;6.542;2022-08-01T02:06:42;4.53;;;3.37;;
1404;SDS011;697;51.114;6.542;2022-08-01T02:09:11;3.53;;;3.23;;
1404;SDS011;697;51.114;6.542;2022-08-01T02:11:42;3.10;;;2.80;;
1404;SDS011;697;51.114;6.542;2022-08-01T02:14:10;4.80;;;3.30;;
1404;SDS011;697;51.114;6.542;2022-08-01T02:16:40;3.77;;;3.03;;
1404;SDS011;697;51.114;6.542;2022-08-01T02:19:09;4.13;;;3.37;;
1404;SDS011;697;51.114;6.542;2022-08-01T02:21:38;4.07;;;3.33;;
1404;SDS011;697;51.114;6.542;2022-08-01T02:24:09;4.03;;;3.27;;
1404;SDS011;697;51.114;6.542;2022-08-01T02:26:41;5.43;;;3.27;;
1404;SDS011;697;51.114;6.542;2022-08-01T02:29:14;3.73;;;3.33;;
1404;SDS011;697;51.114;6.542;2022-08-01T02:31:48;3.60;;;3.20;;
1404;SDS011;697;51.114;6.542;2022-08-01T02:34:19;4.07;;;3.43;;
1404;SDS011;697;51.114;6.542;2022-08-01T02:36:48;5.00;;;4.03;;
1404;SDS011;697;51.114;6.542;2022-08-01T02:39:17;4.20;;;3.20;;
1404;SDS011;697;51.114;6.542;2022-08-01T02:41:47;4.40;;;3.90;;
1404;SDS011;697;51.114;6.542;2022-08-01T02:44:23;3.80;;;3.30;;
1404;SDS011;697;51.114;6.542;2022-08-01T02:46:52;4.90;;;3.50;;
1404;SDS011;697;51.114;6.542;2022-08-01T02:49:27;4.13;;;3.80;;
1404;SDS011;697;51.114;6.542;2022-08-01T02:51:58;6.23;;;4.80;;
1404;SDS011;697;51.114;6.542;2022-08-01T02:54:27;8.83;;;4.47;;
1404;SDS011;697;51.114;6.542;2022-08-01T02:56:57;5.33;;;4.67;;
1404;SDS011;697;51.114;6.542;2022-08-01T02:59:25;5.23;;;4.10;;
1404;SDS011;697;51.114;6.542;2022-08-01T03:01:56;6.50;;;4.50;;
1404;SDS011;697;51.114;6.542;2022-08-01T03:04:25;5.63;;;5.13;;
1404;SDS011;697;51.114;6.542;2022-08-01T03:06:54;7.80;;;4.97;;
1404;SDS011;697;51.114;6.542;2022-08-01T03:09:23;5.00;;;4.57;;
1404;SDS011;697;51.114;6.542;2022-08-01T03:11:53;6.10;;;4.60;;
1404;SDS011;697;51.114;6.542;2022-08-01T03:14:21;5.60;;;4.63;;
1404;SDS011;697;51.114;6.542;2022-08-01T03:16:51;4.90;;;4.50;;
1404;SDS011;697;51.114;6.542;2022-08-01T03:19:20;7.47;;;4.80;;
1404;SDS011;697;51.114;6.542;2022-08-01T03:21:50;7.37;;;5.03;;
1404;SDS011;697;51.114;6.542;2022-08-01T03:24:18;4.87;;;4.37;;
1404;SDS011;697;51.114;6.542;2022-08-01T03:26:47;6.27;;;4.30;;
1404;SDS011;697;51.114;6.542;2022-08-01T03:29:17;6.73;;;5.37;;
1404;SDS011;697;51.114;6.542;2022-08-01T03:31:47;5.33;;;4.73;;
1404;SDS011;697;51.114;6.542;2022-08-01T03:34:15;5.27;;;4.87;;
1404;SDS011;697;51.114;6.542;2022-08-01T03:36:45;6.53;;;5.13;;
1404;SDS011;697;51.114;6.542;2022-08-01T03:39:13;6.10;;;5.53;;
1404;SDS011;697;51.114;6.542;2022-08-01T03:41:43;6.93;;;4.43;;
1404;SDS011;697;51.114;6.542;2022-08-01T03:44:15;5.90;;;5.30;;
1404;SDS011;697;51.114;6.542;2022-08-01T03:46:46;5.47;;;4.70;;
1404;SDS011;697;51.114;6.542;2022-08-01T03:49:16;7.17;;;5.87;;
1404;SDS011;697;51.114;6.542;2022-08-01T03:51:47;7.00;;;5.83;;
1404;SDS011;697;51.114;6.542;2022-08-01T03:54:16;10.70;;;6.40;;
1404;SDS011;697;51.114;6.542;2022-08-01T03:56:46;6.70;;;6.03;;
1404;SDS011;697;51.114;6.542;2022-08-01T03:59:16;7.27;;;6.30;;
1404;SDS011;697;51.114;6.542;2022-08-01T04:01:44;8.27;;;7.40;;
1404;SDS011;697;51.114;6.542;2022-08-01T04:04:12;8.70;;;7.50;;
1404;SDS011;697;51.114;6.542;2022-08-01T04:06:40;10.50;;;7.20;;
1404;SDS011;697;51.114;6.542;2022-08-01T04:09:10;9.67;;;8.40;;
1404;SDS011;697;51.114;6.542;2022-08-01T04:11:37;11.13;;;8.73;;
1404;SDS011;697;51.114;6.542;2022-08-01T04:14:04;9.63;;;8.67;;
1404;SDS011;697;51.114;6.542;2022-08-01T04:16:31;12.00;;;7.80;;
1404;SDS011;697;51.114;6.542;2022-08-01T04:18:58;9.93;;;8.50;;
1404;SDS011;697;51.114;6.542;2022-08-01T04:21:25;10.07;;;9.07;;
1404;SDS011;697;51.114;6.542;2022-08-01T04:23:56;12.67;;;10.07;;
1404;SDS011;697;51.114;6.542;2022-08-01T04:26:27;11.40;;;9.90;;
1404;SDS011;697;51.114;6.542;2022-08-01T04:28:55;10.63;;;9.30;;
1404;SDS011;697;51.114;6.542;2022-08-01T04:31:22;11.30;;;9.47;;
1404;SDS011;697;51.114;6.542;2022-08-01T04:33:52;10.30;;;8.80;;
1404;SDS011;697;51.114;6.542;2022-08-01T04:36:21;11.77;;;10.33;;
1404;SDS011;697;51.114;6.542;2022-08-01T04:38:52;11.83;;;10.03;;
1404;SDS011;697;51.114;6.542;2022-08-01T04:41:21;12.87;;;10.50;;
1404;SDS011;697;51.114;6.542;2022-08-01T04:43:50;11.30;;;10.20;;
1404;SDS011;697;51.114;6.542;2022-08-01T04:46:19;11.77;;;10.57;;
1404;SDS011;697;51.114;6.542;2022-08-01T04:48:46;13.67;;;10.80;;
1404;SDS011;697;51.114;6.542;2022-08-01T04:51:15;13.23;;;10.90;;
1404;SDS011;697;51.114;6.542;2022-08-01T04:53:42;14.20;;;10.80;;
1404;SDS011;697;51.114;6.542;2022-08-01T04:56:10;16.33;;;12.20;;
1404;SDS011;697;51.114;6.542;2022-08-01T04:58:38;11.57;;;9.93;;
1404;SDS011;697;51.114;6.542;2022-08-01T05:01:07;13.23;;;11.00;;
1404;SDS011;697;51.114;6.542;2022-08-01T05:03:34;12.17;;;10.97;;
1404;SDS011;697;51.114;6.542;2022-08-01T05:06:01;12.73;;;11.43;;
1404;SDS011;697;51.114;6.542;2022-08-01T05:08:27;12.50;;;11.20;;
1404;SDS011;697;51.114;6.542;2022-08-01T05:10:54;14.43;;;11.33;;
1404;SDS011;697;51.114;6.542;2022-08-01T05:13:21;14.60;;;11.13;;
1404;SDS011;697;51.114;6.542;2022-08-01T05:15:48;13.13;;;11.80;;
1404;SDS011;697;51.114;6.542;2022-08-01T05:18:16;12.63;;;11.17;;
1404;SDS011;697;51.114;6.542;2022-08-01T05:20:44;13.77;;;11.80;;
1404;SDS011;697;51.114;6.542;2022-08-01T05:23:12;14.87;;;13.10;;
1404;SDS011;697;51.114;6.542;2022-08-01T05:25:39;14.27;;;12.77;;
1404;SDS011;697;51.114;6.542;2022-08-01T05:28:05;28.13;;;13.70;;
1404;SDS011;697;51.114;6.542;2022-08-01T05:30:32;14.70;;;12.43;;
1404;SDS011;697;51.114;6.542;2022-08-01T05:32:59;15.30;;;12.70;;
1404;SDS011;697;51.114;6.542;2022-08-01T05:35:27;13.93;;;12.63;;
1404;SDS011;697;51.114;6.542;2022-08-01T05:37:54;15.37;;;12.83;;
1404;SDS011;697;51.114;6.542;2022-08-01T05:40:21;15.30;;;12.73;;
1404;SDS011;697;51.114;6.542;2022-08-01T05:42:48;15.07;;;13.60;;
1404;SDS011;697;51.114;6.542;2022-08-01T05:45:14;16.97;;;12.97;;
1404;SDS011;697;51.114;6.542;2022-08-01T05:47:41;15.47;;;13.87;;
1404;SDS011;697;51.114;6.542;2022-08-01T05:50:08;14.37;;;12.87;;
1404;SDS011;697;51.114;6.542;2022-08-01T05:52:36;16.17;;;14.53;;
1404;SDS011;697;51.114;6.542;2022-08-01T05:55:04;18.97;;;14.13;;
1404;SDS011;697;51.114;6.542;2022-08-01T05:57:32;16.20;;;14.70;;
1404;SDS011;697;51.114;6.542;2022-08-01T05:59:59;16.77;;;14.70;;
1404;SDS011;697;51.114;6.542;2022-08-01T06:02:25;15.77;;;14.10;;
1404;SDS011;697;51.114;6.542;2022-08-01T06:04:52;14.80;;;13.23;;
1404;SDS011;697;51.114;6.542;2022-08-01T06:07:19;15.97;;;14.43;;
1404;SDS011;697;51.114;6.542;2022-08-01T06:09:47;18.50;;;14.70;;
1404;SDS011;697;51.114;6.542;2022-08-01T06:12:14;17.23;;;13.97;;
1404;SDS011;697;51.114;6.542;2022-08-01T06:14:40;16.60;;;15.00;;
1404;SDS011;697;51.114;6.542;2022-08-01T06:17:07;15.77;;;14.27;;
1404;SDS011;697;51.114;6.542;2022-08-01T06:19:34;14.90;;;13.50;;
1404;SDS011;697;51.114;6.542;2022-08-01T06:22:01;15.27;;;13.70;;
1404;SDS011;697;51.114;6.542;2022-08-01T06:24:28;14.47;;;12.97;;
1404;SDS011;697;51.114;6.542;2022-08-01T06:26:56;15.80;;;14.13;;
1404;SDS011;697;51.114;6.542;2022-08-01T06:29:22;14.30;;;12.93;;
1404;SDS011;697;51.114;6.542;2022-08-01T06:31:49;13.93;;;12.53;;
1404;SDS011;697;51.114;6.542;2022-08-01T06:34:16;14.07;;;12.67;;
1404;SDS011;697;51.114;6.542;2022-08-01T06:36:43;13.33;;;12.10;;
1404;SDS011;697;51.114;6.542;2022-08-01T06:39:09;12.80;;;11.50;;
1404;SDS011;697;51.114;6.542;2022-08-01T06:41:36;10.87;;;9.87;;
1404;SDS011;697;51.114;6.542;2022-08-01T06:44:04;11.13;;;10.17;;
1404;SDS011;697;51.114;6.542;2022-08-01T06:46:31;12.53;;;10.63;;
1404;SDS011;697;51.114;6.542;2022-08-01T06:48:58;10.20;;;9.30;;
1404;SDS011;697;51.114;6.542;2022-08-01T06:51:25;12.03;;;10.77;;
1404;SDS011;697;51.114;6.542;2022-08-01T06:53:51;10.03;;;9.13;;
1404;SDS011;697;51.114;6.542;2022-08-01T06:56:19;9.90;;;8.90;;
1404;SDS011;697;51.114;6.542;2022-08-01T06:58:45;10.20;;;9.07;;
1404;SDS011;697;51.114;6.542;2022-08-01T07:01:14;9.73;;;8.73;;
1404;SDS011;697;51.114;6.542;2022-08-01T07:03:41;9.30;;;8.50;;
1404;SDS011;697;51.114;6.542;2022-08-01T07:06:07;8.17;;;7.53;;
1404;SDS011;697;51.114;6.542;2022-08-01T07:08:34;8.23;;;7.43;;
1404;SDS011;697;51.114;6.542;2022-08-01T07:11:01;8.63;;;7.70;;
1404;SDS011;697;51.114;6.542;2022-08-01T07:13:28;11.40;;;8.40;;
1404;SDS011;697;51.114;6.542;2022-08-01T07:15:56;8.27;;;7.50;;
1404;SDS011;697;51.114;6.542;2022-08-01T07:18:24;7.50;;;6.83;;
1404;SDS011;697;51.114;6.542;2022-08-01T07:20:51;7.37;;;6.73;;
1404;SDS011;697;51.114;6.542;2022-08-01T07:23:18;8.37;;;6.77;;
1404;SDS011;697;51.114;6.542;2022-08-01T07:25:45;8.60;;;7.80;;
1404;SDS011;697;51.114;6.542;2022-08-01T07:28:13;8.63;;;7.80;;
1404;SDS011;697;51.114;6.542;2022-08-01T07:30:40;8.20;;;7.20;;
1404;SDS011;697;51.114;6.542;2022-08-01T07:33:09;8.30;;;7.30;;
1404;SDS011;697;51.114;6.542;2022-08-01T07:35:37;7.50;;;6.90;;
1404;SDS011;697;51.114;6.542;2022-08-01T07:38:04;7.67;;;6.97;;
1404;SDS011;697;51.114;6.542;2022-08-01T07:40:31;7.67;;;6.97;;
1404;SDS011;697;51.114;6.542;2022-08-01T07:42:58;7.17;;;6.47;;
1404;SDS011;697;51.114;6.542;2022-08-01T07:45:25;8.10;;;7.37;;
1404;SDS011;697;51.114;6.542;2022-08-01T07:47:52;6.83;;;6.30;;
1404;SDS011;697;51.114;6.542;2022-08-01T07:50:19;9.15;;;8.35;;
1404;SDS011;697;51.114;6.542;2022-08-01T07:52:47;7.20;;;6.50;;
1404;SDS011;697;51.114;6.542;2022-08-01T07:55:14;6.90;;;6.20;;
1404;SDS011;697;51.114;6.542;2022-08-01T07:57:41;8.07;;;7.40;;
1404;SDS011;697;51.114;6.542;2022-08-01T08:00:08;7.23;;;6.63;;
1404;SDS011;697;51.114;6.542;2022-08-01T08:02:35;9.37;;;7.40;;
1404;SDS011;697;51.114;6.542;2022-08-01T08:05:02;7.37;;;5.73;;
1404;SDS011;697;51.114;6.542;2022-08-01T08:07:29;7.20;;;6.60;;
1404;SDS011;697;51.114;6.542;2022-08-01T08:09:58;7.40;;;6.80;;
1404;SDS011;697;51.114;6.542;2022-08-01T08:12:25;6.70;;;6.20;;
1404;SDS011;697;51.114;6.542;2022-08-01T08:14:52;5.57;;;5.07;;
1404;SDS011;697;51.114;6.542;2022-08-01T08:17:18;6.43;;;5.90;;
1404;SDS011;697;51.114;6.542;2022-08-01T08:19:45;7.27;;;5.50;;
1404;SDS011;697;51.114;6.542;2022-08-01T08:22:12;7.50;;;6.80;;
1404;SDS011;697;51.114;6.542;2022-08-01T08:24:39;7.20;;;6.50;;
1404;SDS011;697;51.114;6.542;2022-08-01T08:27:07;9.03;;;6.53;;
1404;SDS011;697;51.114;6.542;2022-08-01T08:29:34;7.30;;;6.60;;
1404;SDS011;697;51.114;6.542;2022-08-01T08:32:01;7.13;;;5.57;;
1404;SDS011;697;51.114;6.542;2022-08-01T08:34:28;6.95;;;6.22;;
1404;SDS011;697;51.114;6.542;2022-08-01T08:36:55;5.90;;;5.50;;
1404;SDS011;697;51.114;6.542;2022-08-01T08:39:23;7.93;;;5.10;;
1404;SDS011;697;51.114;6.542;2022-08-01T08:41:49;8.20;;;5.33;;
1404;SDS011;697;51.114;6.542;2022-08-01T08:44:18;5.90;;;5.40;;
1404;SDS011;697;51.114;6.542;2022-08-01T09:14:14;6.30;;;5.80;;
1404;SDS011;697;51.114;6.542;2022-08-01T09:16:47;5.63;;;5.17;;
1404;SDS011;697;51.114;6.542;2022-08-01T09:19:25;7.30;;;6.70;;
1404;SDS011;697;51.114;6.542;2022-08-01T09:22:01;7.03;;;6.43;;
1404;SDS011;697;51.114;6.542;2022-08-01T09:24:29;7.93;;;7.10;;
1404;SDS011;697;51.114;6.542;2022-08-01T09:26:57;6.43;;;5.90;;
1404;SDS011;697;51.114;6.542;2022-08-01T09:29:26;7.03;;;6.43;;
1404;SDS011;697;51.114;6.542;2022-08-01T09:31:55;6.67;;;6.07;;
1404;SDS011;697;51.114;6.542;2022-08-01T09:34:24;7.17;;;6.47;;
1404;SDS011;697;51.114;6.542;2022-08-01T09:36:53;5.90;;;5.40;;
1404;SDS011;697;51.114;6.542;2022-08-01T09:39:22;7.20;;;6.53;;
1404;SDS011;697;51.114;6.542;2022-08-01T09:41:49;7.20;;;6.50;;
1404;SDS011;697;51.114;6.542;2022-08-01T09:44:17;6.10;;;5.50;;
1404;SDS011;697;51.114;6.542;2022-08-01T09:46:50;6.10;;;5.60;;
1404;SDS011;697;51.114;6.542;2022-08-01T09:49:27;6.07;;;5.67;;
1404;SDS011;697;51.114;6.542;2022-08-01T09:51:56;6.00;;;5.50;;
1404;SDS011;697;51.114;6.542;2022-08-01T09:54:30;5.63;;;5.13;;
1404;SDS011;697;51.114;6.542;2022-08-01T09:57:08;5.67;;;5.17;;
1404;SDS011;697;51.114;6.542;2022-08-01T09:59:37;6.03;;;5.40;;
1404;SDS011;697;51.114;6.542;2022-08-01T10:02:08;5.93;;;5.53;;
1404;SDS011;697;51.114;6.542;2022-08-01T10:04:45;4.87;;;4.47;;
1404;SDS011;697;51.114;6.542;2022-08-01T10:07:12;5.77;;;4.97;;
1404;SDS011;697;51.114;6.542;2022-08-01T10:09:41;5.97;;;5.40;;
1404;SDS011;697;51.114;6.542;2022-08-01T10:12:08;6.00;;;4.70;;
1404;SDS011;697;51.114;6.542;2022-08-01T10:14:37;10.30;;;4.63;;
1404;SDS011;697;51.114;6.542;2022-08-01T10:17:06;6.93;;;4.40;;
1404;SDS011;697;51.114;6.542;2022-08-01T10:19:35;6.50;;;4.53;;
1404;SDS011;697;51.114;6.542;2022-08-01T10:22:04;4.20;;;3.90;;
1404;SDS011;697;51.114;6.542;2022-08-01T10:24:36;4.20;;;3.90;;
1404;SDS011;697;51.114;6.542;2022-08-01T10:27:05;3.80;;;3.50;;
1404;SDS011;697;51.114;6.542;2022-08-01T10:29:37;3.47;;;3.27;;
1404;SDS011;697;51.114;6.542;2022-08-01T10:32:07;5.30;;;4.90;;
1404;SDS011;697;51.114;6.542;2022-08-01T10:34:37;4.50;;;4.10;;
1404;SDS011;697;51.114;6.542;2022-08-01T10:37:04;4.87;;;4.47;;
1404;SDS011;697;51.114;6.542;2022-08-01T10:39:31;5.73;;;5.23;;
1404;SDS011;697;51.114;6.542;2022-08-01T10:41:59;4.20;;;3.90;;
1404;SDS011;697;51.114;6.542;2022-08-01T10:44:27;4.60;;;4.30;;
1404;SDS011;697;51.114;6.542;2022-08-01T10:46:57;4.07;;;3.77;;
1404;SDS011;697;51.114;6.542;2022-08-01T10:49:30;4.63;;;4.33;;
1404;SDS011;697;51.114;6.542;2022-08-01T10:52:01;6.03;;;3.70;;
1404;SDS011;697;51.114;6.542;2022-08-01T10:54:29;3.23;;;2.87;;
1404;SDS011;697;51.114;6.542;2022-08-01T10:57:05;3.90;;;3.13;;
1404;SDS011;697;51.114;6.542;2022-08-01T10:59:32;3.80;;;3.50;;
1404;SDS011;697;51.114;6.542;2022-08-01T11:02:00;4.27;;;3.30;;
1404;SDS011;697;51.114;6.542;2022-08-01T11:04:33;5.10;;;4.70;;
1404;SDS011;697;51.114;6.542;2022-08-01T11:07:11;3.60;;;3.40;;
1404;SDS011;697;51.114;6.542;2022-08-01T11:09:43;3.90;;;3.60;;
1404;SDS011;697;51.114;6.542;2022-08-01T11:12:12;4.07;;;3.77;;
1404;SDS011;697;51.114;6.542;2022-08-01T11:17:50;2.57;;;2.37;;
1404;SDS011;697;51.114;6.542;2022-08-01T11:20:19;3.73;;;3.43;;
1404;SDS011;697;51.114;6.542;2022-08-01T11:26:07;2.00;;;1.90;;
1404;SDS011;697;51.114;6.542;2022-08-01T11:28:35;1.93;;;1.63;;
1404;SDS011;697;51.114;6.542;2022-08-01T11:33:55;3.17;;;2.07;;
1404;SDS011;697;51.114;6.542;2022-08-01T11:36:22;3.20;;;2.27;;
1404;SDS011;697;51.114;6.542;2022-08-01T11:38:50;1.93;;;1.73;;
1404;SDS011;697;51.114;6.542;2022-08-01T11:41:39;2.67;;;1.63;;
1404;SDS011;697;51.114;6.542;2022-08-01T11:44:07;3.43;;;1.40;;
1404;SDS011;697;51.114;6.542;2022-08-01T11:46:48;2.23;;;1.57;;
1404;SDS011;697;51.114;6.542;2022-08-01T11:52:13;1.97;;;1.47;;
1404;SDS011;697;51.114;6.542;2022-08-01T11:54:43;1.40;;;1.30;;
1404;SDS011;697;51.114;6.542;2022-08-01T11:57:11;1.30;;;1.20;;
1404;SDS011;697;51.114;6.542;2022-08-01T11:59:41;5.70;;;1.50;;
1404;SDS011;697;51.114;6.542;2022-08-01T12:02:20;1.77;;;0.93;;
1404;SDS011;697;51.114;6.542;2022-08-01T12:04:49;1.73;;;1.33;;
1404;SDS011;697;51.114;6.542;2022-08-01T12:07:18;2.23;;;1.10;;
1404;SDS011;697;51.114;6.542;2022-08-01T12:09:47;1.30;;;1.20;;
1404;SDS011;697;51.114;6.542;2022-08-01T12:12:15;2.30;;;1.10;;
1404;SDS011;697;51.114;6.542;2022-08-01T12:14:43;1.00;;;0.90;;
1404;SDS011;697;51.114;6.542;2022-08-01T12:17:11;2.63;;;1.27;;
1404;SDS011;697;51.114;6.542;2022-08-01T12:19:39;2.27;;;1.20;;
1404;SDS011;697;51.114;6.542;2022-08-01T12:22:08;1.27;;;1.17;;
1404;SDS011;697;51.114;6.542;2022-08-01T12:24:36;1.60;;;1.40;;
1404;SDS011;697;51.114;6.542;2022-08-01T12:27:06;1.37;;;1.27;;
1404;SDS011;697;51.114;6.542;2022-08-01T12:29:35;3.40;;;1.67;;
1404;SDS011;697;51.114;6.542;2022-08-01T12:32:03;1.30;;;1.20;;
1404;SDS011;697;51.114;6.542;2022-08-01T12:34:46;1.23;;;1.13;;
1404;SDS011;697;51.114;6.542;2022-08-01T12:37:13;1.30;;;1.10;;
1404;SDS011;697;51.114;6.542;2022-08-01T12:39:39;1.83;;;1.13;;
1404;SDS011;697;51.114;6.542;2022-08-01T12:42:08;1.63;;;1.27;;
1404;SDS011;697;51.114;6.542;2022-08-01T12:44:35;1.30;;;1.20;;
1404;SDS011;697;51.114;6.542;2022-08-01T12:47:03;2.20;;;1.40;;
1404;SDS011;697;51.114;6.542;2022-08-01T12:49:32;2.10;;;1.30;;
1404;SDS011;697;51.114;6.542;2022-08-01T12:51:59;2.60;;;1.30;;
1404;SDS011;697;51.114;6.542;2022-08-01T12:54:26;1.63;;;1.53;;
1404;SDS011;697;51.114;6.542;2022-08-01T12:56:53;1.13;;;1.03;;
1404;SDS011;697;51.114;6.542;2022-08-01T12:59:23;1.20;;;1.10;;
1404;SDS011;697;51.114;6.542;2022-08-01T13:01:52;1.33;;;1.13;;
1404;SDS011;697;51.114;6.542;2022-08-01T13:04:20;1.40;;;1.30;;
1404;SDS011;697;51.114;6.542;2022-08-01T13:06:47;1.37;;;1.20;;
1404;SDS011;697;51.114;6.542;2022-08-01T13:09:18;1.90;;;1.23;;
1404;SDS011;697;51.114;6.542;2022-08-01T13:11:45;1.40;;;1.10;;
1404;SDS011;697;51.114;6.542;2022-08-01T13:14:27;1.00;;;1.00;;
1404;SDS011;697;51.114;6.542;2022-08-01T13:16:54;3.63;;;1.40;;
1404;SDS011;697;51.114;6.542;2022-08-01T13:19:27;1.43;;;1.30;;
1404;SDS011;697;51.114;6.542;2022-08-01T13:22:07;4.73;;;1.30;;
1404;SDS011;697;51.114;6.542;2022-08-01T13:24:34;1.60;;;1.50;;
1404;SDS011;697;51.114;6.542;2022-08-01T13:27:02;1.40;;;1.30;;
1404;SDS011;697;51.114;6.542;2022-08-01T13:29:32;1.50;;;1.40;;
1404;SDS011;697;51.114;6.542;2022-08-01T13:32:11;3.20;;;1.53;;
1404;SDS011;697;51.114;6.542;2022-08-01T13:34:39;1.50;;;1.40;;
1404;SDS011;697;51.114;6.542;2022-08-01T13:37:06;3.13;;;1.80;;
1404;SDS011;697;51.114;6.542;2022-08-01T13:39:33;1.90;;;1.73;;
1404;SDS011;697;51.114;6.542;2022-08-01T13:42:06;1.87;;;1.77;;
1404;SDS011;697;51.114;6.542;2022-08-01T13:44:34;2.07;;;1.50;;
1404;SDS011;697;51.114;6.542;2022-08-01T13:47:01;1.80;;;1.70;;
1404;SDS011;697;51.114;6.542;2022-08-01T13:49:28;2.03;;;1.40;;
1404;SDS011;697;51.114;6.542;2022-08-01T13:51:55;1.63;;;1.40;;
1404;SDS011;697;51.114;6.542;2022-08-01T13:54:22;1.93;;;1.43;;
1404;SDS011;697;51.114;6.542;2022-08-01T13:56:49;2.30;;;2.07;;
1404;SDS011;697;51.114;6.542;2022-08-01T13:59:17;2.13;;;1.43;;
1404;SDS011;697;51.114;6.542;2022-08-01T14:01:45;1.77;;;1.60;;
1404;SDS011;697;51.114;6.542;2022-08-01T14:04:12;2.07;;;1.70;;
1404;SDS011;697;51.114;6.542;2022-08-01T14:06:39;5.30;;;1.87;;
1404;SDS011;697;51.114;6.542;2022-08-01T14:09:06;4.60;;;1.60;;
1404;SDS011;697;51.114;6.542;2022-08-01T14:11:33;1.90;;;1.50;;
1404;SDS011;697;51.114;6.542;2022-08-01T14:14:00;2.03;;;1.60;;
1404;SDS011;697;51.114;6.542;2022-08-01T14:16:26;1.47;;;1.37;;
1404;SDS011;697;51.114;6.542;2022-08-01T14:18:55;4.33;;;1.20;;
1404;SDS011;697;51.114;6.542;2022-08-01T14:21:21;2.63;;;1.10;;
1404;SDS011;697;51.114;6.542;2022-08-01T14:23:48;2.80;;;1.30;;
1404;SDS011;697;51.114;6.542;2022-08-01T14:26:15;2.47;;;1.30;;
1404;SDS011;697;51.114;6.542;2022-08-01T14:28:41;1.70;;;1.40;;
1404;SDS011;697;51.114;6.542;2022-08-01T14:31:08;2.20;;;1.67;;
1404;SDS011;697;51.114;6.542;2022-08-01T14:33:35;1.30;;;1.20;;
1404;SDS011;697;51.114;6.542;2022-08-01T14:36:04;1.43;;;1.30;;
1404;SDS011;697;51.114;6.542;2022-08-01T14:38:31;1.73;;;1.33;;
1404;SDS011;697;51.114;6.542;2022-08-01T14:40:57;1.40;;;1.30;;
1404;SDS011;697;51.114;6.542;2022-08-01T14:43:24;1.50;;;1.40;;
1404;SDS011;697;51.114;6.542;2022-08-01T14:45:51;1.70;;;1.60;;
1404;SDS011;697;51.114;6.542;2022-08-01T14:48:19;1.40;;;1.30;;
1404;SDS011;697;51.114;6.542;2022-08-01T14:50:46;1.80;;;1.70;;
1404;SDS011;697;51.114;6.542;2022-08-01T14:53:14;2.57;;;1.10;;
1404;SDS011;697;51.114;6.542;2022-08-01T14:55:41;1.77;;;1.50;;
1404;SDS011;697;51.114;6.542;2022-08-01T14:58:09;1.83;;;1.03;;
1404;SDS011;697;51.114;6.542;2022-08-01T15:00:35;1.70;;;1.47;;
1404;SDS011;697;51.114;6.542;2022-08-01T15:03:02;1.30;;;1.20;;
1404;SDS011;697;51.114;6.542;2022-08-01T15:05:29;1.53;;;1.30;;
1404;SDS011;697;51.114;6.542;2022-08-01T15:07:57;1.20;;;1.07;;
1404;SDS011;697;51.114;6.542;2022-08-01T15:10:26;1.70;;;1.40;;
1404;SDS011;697;51.114;6.542;2022-08-01T15:12:53;2.13;;;1.40;;
1404;SDS011;697;51.114;6.542;2022-08-01T15:15:20;1.70;;;1.33;;
1404;SDS011;697;51.114;6.542;2022-08-01T15:17:47;1.93;;;1.37;;
1404;SDS011;697;51.114;6.542;2022-08-01T15:20:14;1.93;;;1.60;;
1404;SDS011;697;51.114;6.542;2022-08-01T15:22:41;1.43;;;1.33;;
1404;SDS011;697;51.114;6.542;2022-08-01T15:25:07;1.50;;;1.40;;
1404;SDS011;697;51.114;6.542;2022-08-01T15:27:36;1.57;;;1.37;;
1404;SDS011;697;51.114;6.542;2022-08-01T15:30:03;2.43;;;1.13;;
1404;SDS011;697;51.114;6.542;2022-08-01T15:32:30;1.42;;;1.30;;
1404;SDS011;697;51.114;6.542;2022-08-01T15:34:57;2.15;;;1.48;;
1404;SDS011;697;51.114;6.542;2022-08-01T15:37:23;4.07;;;1.08;;
1404;SDS011;697;51.114;6.542;2022-08-01T15:39:50;1.98;;;1.40;;
1404;SDS011;697;51.114;6.542;2022-08-01T15:42:17;1.92;;;1.55;;
1404;SDS011;697;51.114;6.542;2022-08-01T15:44:46;2.42;;;1.42;;
1404;SDS011;697;51.114;6.542;2022-08-01T15:47:13;1.73;;;1.20;;
1404;SDS011;697;51.114;6.542;2022-08-01T15:49:41;2.13;;;1.58;;
1404;SDS011;697;51.114;6.542;2022-08-01T15:52:08;4.10;;;1.95;;
1404;SDS011;697;51.114;6.542;2022-08-01T15:54:35;2.90;;;2.17;;
1404;SDS011;697;51.114;6.542;2022-08-01T15:57:02;1.70;;;1.23;;
1404;SDS011;697;51.114;6.542;2022-08-01T15:59:29;1.43;;;1.30;;
1404;SDS011;697;51.114;6.542;2022-08-01T16:01:57;1.87;;;1.30;;
1404;SDS011;697;51.114;6.542;2022-08-01T16:04:24;1.80;;;1.57;;
1404;SDS011;697;51.114;6.542;2022-08-01T16:06:50;2.80;;;1.43;;
1404;SDS011;697;51.114;6.542;2022-08-01T16:09:17;2.10;;;1.67;;
1404;SDS011;697;51.114;6.542;2022-08-01T16:11:44;3.77;;;1.53;;
1404;SDS011;697;51.114;6.542;2022-08-01T16:14:11;3.00;;;1.70;;